Data for 02/16/2009

Time Sea-Level Adjusted Pressure Absolute Pressure Temperature Relative Humidity Dew Point   
(mb) (inHg) (mb) (inHg) (C) (F) (%) (C) (F)
00:05 1012 29.88 841 24.83 -0.8 30.5 51 -9.7 14.6
00:10 1012 29.88 841 24.83 -0.9 30.4 53 -9.5 15
00:15 1012 29.88 841 24.83 -1.1 30 51 -10 14
00:20 1012 29.88 841 24.83 -1.1 30 52 -9.9 14.2
00:25 1012 29.88 841 24.83 -1.1 30 51 -10 14
00:30 1012 29.88 841 24.83 -1 30.2 51 -10 14
00:35 1012 29.88 841 24.83 -0.9 30.4 50 -10.2 13.7
00:40 1012 29.88 841 24.83 -0.8 30.5 51 -9.8 14.3
00:45 1012 29.88 841 24.83 -1 30.3 51 -9.8 14.3
00:50 1012 29.88 841 24.83 -1.2 29.8 52 -9.9 14.2
00:55 1012 29.88 841 24.83 -1.4 29.6 52 -10.1 13.8
01:00 1012 29.88 841 24.83 -1.4 29.5 50 -10.5 13.2
01:05 1012 29.88 841 24.83 -1.3 29.7 50 -10.4 13.4
01:10 1012 29.88 841 24.83 -1.3 29.6 51 -10.2 13.6
01:15 1012 29.88 841 24.83 -1.3 29.6 49 -10.7 12.7
01:20 1012 29.88 841 24.83 -1.2 29.8 53 -9.8 14.4
01:25 1012 29.88 841 24.83 -1.5 29.3 51 -10.3 13.5
01:30 1012 29.88 841 24.83 -1.6 29.1 52 -10.2 13.6
01:35 1012 29.88 841 24.83 -1.7 28.9 52 -10.2 13.6
01:40 1012 29.88 841 24.83 -1.7 28.9 51 -10.5 13.1
01:45 1012 29.88 841 24.83 -1.7 29 51 -10.6 13
01:50 1012 29.88 841 24.83 -1.5 29.2 50 -10.7 12.7
01:55 1012 29.88 841 24.83 -1.5 29.4 50 -10.6 13
02:00 1012 29.88 841 24.83 -1.6 29.2 50 -10.7 12.7
02:05 1012 29.88 841 24.83 -1.4 29.5 49 -10.7 12.7
02:10 1012 29.88 841 24.83 -1.3 29.6 50 -10.6 12.9
02:15 1012 29.88 841 24.83 -1.3 29.7 48 -10.9 12.3
02:20 1012 29.88 841 24.83 -1.1 30 50 -10.3 13.5
02:25 1012 29.88 841 24.83 -1.3 29.7 51 -10.2 13.7
02:30 1012 29.88 841 24.83 -1.4 29.5 51 -10.2 13.6
02:35 1012 29.88 841 24.83 -1.4 29.5 50 -10.6 13
02:40 1012 29.88 841 24.83 -1.3 29.7 50 -10.4 13.4
02:45 1012 29.88 841 24.83 -1.2 29.8 50 -10.4 13.4
02:50 1012 29.88 841 24.83 -1.3 29.7 51 -10.2 13.7
02:55 1012 29.88 841 24.83 -1.4 29.4 51 -10.3 13.5
03:00 1012 29.88 841 24.83 -1.6 29.1 52 -10.2 13.6
03:05 1012 29.88 841 24.83 -1.6 29.1 52 -10.2 13.6
03:10 1012 29.88 841 24.83 -1.4 29.4 51 -10.3 13.5
03:15 1012 29.88 841 24.83 -1.2 29.9 52 -9.8 14.3
03:20 1012 29.88 841 24.83 -1.2 29.8 52 -9.8 14.4
03:25 1012 29.88 841 24.83 -1.3 29.7 53 -9.6 14.6
03:30 1012 29.88 841 24.83 -1.3 29.7 52 -9.9 14.2
03:35 1012 29.88 841 24.83 -1.5 29.2 53 -9.8 14.3
03:40 1012 29.88 841 24.83 -1.6 29.1 54 -9.9 14.3
03:45 1012 29.88 841 24.83 -1.5 29.3 53 -9.9 14.2
03:50 1012 29.88 841 24.83 -1.5 29.2 54 -9.7 14.6
03:55 1012 29.88 841 24.83 -1.6 29.1 54 -9.7 14.6
04:00 1012 29.88 841 24.83 -1.7 29 53 -10.1 13.9
04:05 1012 29.88 841 24.83 -1.5 29.3 52 -10 13.9
04:10 1012 29.88 841 24.83 -1.5 29.2 54 -9.8 14.4
04:15 1012 29.88 841 24.83 -1.7 28.9 53 -10.1 13.8
04:20 1012 29.88 841 24.83 -1.8 28.8 55 -9.7 14.6
04:25 1012 29.88 841 24.83 -1.9 28.6 53 -10.3 13.4
04:30 1012 29.88 841 24.83 -1.7 29 52 -10.2 13.6
04:35 1012 29.88 841 24.83 -1.6 29.2 51 -10.3 13.4
04:40 1012 29.88 841 24.83 -1.3 29.6 50 -10.4 13.3
04:45 1012 29.88 841 24.83 -1.1 30 49 -10.5 13.1
04:50 1012 29.88 841 24.83 -1 30.1 49 -10.5 13.2
04:55 1012 29.88 841 24.83 -1 30.2 49 -10.5 13.1
05:00 1012 29.88 841 24.83 -1 30.3 49 -10.4 13.2
05:05 1012 29.88 841 24.83 -1 30.2 51 -10 14
05:10 1012 29.88 841 24.83 -1.1 30 53 -9.5 15
05:15 1012 29.88 841 24.83 -1.4 29.5 54 -9.5 14.9
05:20 1012 29.88 841 24.83 -1.4 29.4 51 -10.3 13.5
05:25 1012 29.88 841 24.83 -1.2 29.9 50 -10.3 13.5
05:30 1012 29.88 841 24.83 -1.2 29.8 51 -10.1 13.9
05:35 1012 29.88 841 24.83 -1.3 29.7 51 -10.2 13.7
05:40 1012 29.88 841 24.83 -1.2 29.8 52 -10 14.1
05:45 1012 29.88 841 24.83 -1.3 29.7 51 -10.2 13.7
05:50 1012 29.88 841 24.83 -1.3 29.7 53 -9.6 14.7
05:55 1012 29.88 841 24.83 -1.4 29.4 52 -10 14
06:00 1012 29.88 841 24.83 -1.2 29.8 51 -10.2 13.6
06:05 1012 29.88 841 24.83 -1.1 30 51 -10 14
06:10 1012 29.88 841 24.83 -1.2 29.9 51 -10 13.9
06:15 1012 29.88 841 24.83 -1.2 29.9 51 -10 14
06:20 1012 29.88 841 24.83 -1.2 29.9 51 -10 13.9
06:25 1012 29.88 841 24.83 -1.2 29.9 51 -10 14
06:30 1012 29.88 841 24.83 -1.2 29.9 51 -10 14
06:35 1012 29.88 841 24.83 -1.1 30 51 -10.1 13.8
06:40 1012 29.88 841 24.83 -1.1 30.1 50 -10.1 13.8
06:45 1012 29.88 841 24.83 -1 30.1 50 -10.1 13.8
06:50 1012 29.88 841 24.83 -1 30.2 50 -10.1 13.9
06:55 1012 29.88 841 24.83 -1 30.2 50 -10 13.9
07:00 1012 29.88 841 24.83 -0.9 30.3 50 -10.1 13.9
07:05 1012 29.88 841 24.83 -0.9 30.4 50 -10 13.9
07:10 1012 29.88 841 24.83 -0.8 30.5 49 -10.2 13.7
07:15 1012 29.88 841 24.83 -0.8 30.5 50 -10 14
07:20 1012 29.88 841 24.83 -0.8 30.5 51 -9.8 14.3
07:25 1012 29.88 841 24.83 -0.9 30.3 53 -9.4 15.1
07:30 1012 29.88 841 24.83 -0.9 30.3 51 -9.9 14.2
07:35 1012 29.88 841 24.83 -0.9 30.3 51 -9.8 14.3
07:40 1012 29.88 841 24.83 -1 30.1 52 -9.6 14.7
07:45 1012 29.88 841 24.83 -1 30.2 54 -9.1 15.7
07:50 1012 29.88 841 24.83 -0.8 30.5 55 -8.8 16.1
07:55 1012 29.88 841 24.83 -0.8 30.5 55 -8.7 16.3
08:00 1012 29.88 841 24.83 -0.9 30.5 58 -8.2 17.3
08:05 1012 29.88 841 24.83 -0.9 30.4 57 -8.3 17.1
08:10 1012 29.88 841 24.83 -1 30.3 58 -8.2 17.2
08:15 1012 29.88 841 24.83 -1.1 30 58 -8.4 16.9
08:20 1012 29.88 841 24.83 -1 30.2 57 -8.4 16.9
08:25 1012 29.88 841 24.83 -0.9 30.3 56 -8.6 16.6
08:30 1012 29.88 841 24.83 -0.5 31 55 -8.5 16.7
08:35 1012 29.88 841 24.83 -0.3 31.4 55 -8.3 17
08:40 1012 29.88 841 24.83 -0.4 31.3 56 -8.2 17.2
08:45 1012 29.88 841 24.83 -0.5 31.1 56 -8.1 17.4
08:50 1012 29.88 841 24.83 -0.5 31.1 58 -7.8 17.9
08:55 1011 29.85 841 24.83 -0.4 31.2 55 -8.4 16.8
09:00 1011 29.85 841 24.83 -0.5 31.2 56 -8.3 17.1
09:05 1011 29.85 841 24.83 -0.1 31.7 55 -8.2 17.2
09:10 1011 29.85 841 24.83 0.1 32.1 52 -8.8 16.2
09:15 1011 29.85 841 24.83 0.1 32.2 51 -8.9 16
09:20 1011 29.85 840 24.81 0.3 32.6 50 -8.9 16
09:25 1011 29.85 840 24.81 0.4 32.7 49 -9.1 15.6
09:30 1011 29.85 840 24.81 0.7 33.2 47 -9.5 14.9
09:35 1011 29.85 840 24.81 0.8 33.4 47 -9.4 15.1
09:40 1011 29.85 840 24.81 1.2 34.1 44 -9.7 14.5
09:45 1011 29.85 840 24.81 1.5 34.7 43 -9.7 14.5
09:50 1011 29.85 840 24.81 1.5 34.7 43 -9.7 14.5
09:55 1011 29.85 840 24.81 1.7 35.1 42 -9.8 14.3
10:00 1011 29.85 840 24.81 1.9 35.5 42 -9.6 14.6
10:05 1011 29.85 840 24.81 1.9 35.4 43 -9.4 15.1
10:10 1011 29.85 840 24.81 2 35.6 46 -8.4 16.8
10:15 1011 29.85 840 24.81 2.2 36 47 -8.1 17.5
10:20 1011 29.85 840 24.81 2.4 36.3 44 -8.5 16.6
10:25 1011 29.85 840 24.81 2.7 36.9 44 -8.5 16.7
10:30 1011 29.85 840 24.81 3 37.4 41 -8.9 16
10:35 1011 29.85 840 24.81 3.3 37.9 39 -9.3 15.2
10:40 1011 29.85 840 24.81 3.2 37.8 40 -8.9 15.9
10:45 1011 29.85 840 24.81 3.7 38.6 37 -9.7 14.6
10:50 1011 29.85 840 24.81 4.4 40 35 -9.7 14.5
10:55 1011 29.85 840 24.81 4.8 40.6 35 -9.6 14.7
11:00 1011 29.85 840 24.81 5.1 41.1 34 -9.5 14.9
11:05 1011 29.85 840 24.81 4.8 40.7 35 -9.2 15.4
11:10 1011 29.85 840 24.81 4.5 40.2 35 -9.5 14.8
11:15 1011 29.85 840 24.81 4.5 40.2 35 -9.8 14.3
11:20 1011 29.85 840 24.81 4.7 40.5 34 -9.8 14.3
11:25 1011 29.85 840 24.81 4.7 40.5 35 -9.6 14.6
11:30 1011 29.85 840 24.81 4.1 39.4 36 -9.5 14.8
11:35 1011 29.85 840 24.81 3.7 38.7 36 -10 13.9
11:40 1011 29.85 840 24.81 4.5 40.1 35 -9.6 14.8
11:45 1011 29.85 840 24.81 4.3 39.7 37 -9 15.7
11:50 1011 29.85 840 24.81 4.3 39.7 37 -9.2 15.4
11:55 1011 29.85 840 24.81 3.5 38.4 41 -8.5 16.7
12:00 1011 29.85 840 24.81 2.8 37 41 -9.3 15.2
12:05 1011 29.85 840 24.81 3.5 38.3 38 -9.6 14.7
12:10 1010 29.83 840 24.81 3.8 38.8 39 -9 15.8
12:15 1010 29.83 840 24.81 3 37.5 41 -9 15.8
12:20 1010 29.83 839 24.78 2.6 36.7 42 -9.2 15.5
12:25 1010 29.83 839 24.78 2.8 37 41 -9.2 15.4
12:30 1010 29.83 839 24.78 2.8 37.1 41 -9.2 15.4
12:35 1010 29.83 839 24.78 2.9 37.2 41 -9.2 15.5
12:40 1010 29.83 839 24.78 3.5 38.2 37 -9.7 14.5
12:45 1010 29.83 839 24.78 4.3 39.7 36 -9.7 14.6
12:50 1010 29.83 839 24.78 4.8 40.6 37 -8.9 16.1
12:55 1010 29.83 839 24.78 4.8 40.6 36 -9 15.9
13:00 1010 29.83 839 24.78 5.4 41.6 34 -9.4 15
13:05 1010 29.83 839 24.78 5.9 42.7 34 -8.9 15.9
13:10 1010 29.83 839 24.78 5.4 41.8 33 -9.6 14.8
13:15 1009 29.8 839 24.78 4 39.2 38 -9.2 15.5
13:20 1009 29.8 839 24.78 4.9 40.9 33 -10.2 13.7
13:25 1009 29.8 838 24.75 5 41 34 -9.5 15
13:30 1009 29.8 838 24.75 4.9 40.8 34 -9.9 14.3
13:35 1009 29.8 838 24.75 4.9 40.7 34 -9.6 14.7
13:40 1009 29.8 838 24.75 4.8 40.6 33 -10 14
13:45 1009 29.8 838 24.75 5.1 41.1 33 -10 13.9
13:50 1009 29.8 838 24.75 4.3 39.8 34 -10.2 13.6
13:55 1009 29.8 838 24.75 4.9 40.8 32 -10.3 13.4
14:00 1009 29.8 838 24.75 5.5 41.9 33 -9.7 14.6
14:05 1009 29.8 838 24.75 6 42.9 31 -9.8 14.3
14:10 1009 29.8 838 24.75 5.4 41.7 33 -9.6 14.7
14:15 1009 29.8 838 24.75 4.6 40.3 33 -10.4 13.3
14:20 1009 29.8 838 24.75 4.6 40.2 33 -10.3 13.5
14:25 1009 29.8 838 24.75 5 41.1 32 -10.4 13.3
14:30 1009 29.8 838 24.75 5.6 42.1 32 -9.9 14.2
14:35 1009 29.8 838 24.75 4.9 40.8 34 -9.8 14.4
14:40 1009 29.8 838 24.75 4.9 40.8 34 -9.8 14.3
14:45 1009 29.8 838 24.75 4.7 40.5 35 -9.3 15.2
14:50 1009 29.8 838 24.75 4.8 40.7 34 -9.7 14.5
14:55 1008 29.77 838 24.75 4.9 40.9 35 -9.4 15.1
15:00 1008 29.77 838 24.75 4.9 40.8 34 -9.7 14.6
15:05 1008 29.77 837 24.72 4.7 40.5 35 -9.5 15
15:10 1008 29.77 837 24.72 4.4 40 36 -9.4 15.1
15:15 1008 29.77 837 24.72 4.3 39.7 37 -9.3 15.3
15:20 1008 29.77 837 24.72 4.4 40 37 -9.1 15.6
15:25 1008 29.77 837 24.72 4.8 40.7 36 -9.2 15.4
15:30 1008 29.77 837 24.72 4.4 39.9 37 -8.9 15.9
15:35 1008 29.77 837 24.72 4.3 39.7 37 -9.3 15.2
15:40 1008 29.77 837 24.72 4.6 40.3 36 -9.4 15.2
15:45 1008 29.77 837 24.72 4.5 40.1 36 -9.4 15
15:50 1008 29.77 837 24.72 4.4 39.9 35 -9.7 14.6
15:55 1008 29.77 837 24.72 4.7 40.5 36 -9.1 15.6
16:00 1008 29.77 837 24.72 5 41.1 34 -9.7 14.6
16:05 1008 29.77 837 24.72 4.8 40.7 34 -9.7 14.5
16:10 1008 29.77 837 24.72 4.7 40.4 35 -9.6 14.7
16:15 1008 29.77 837 24.72 4.9 40.8 33 -9.9 14.1
16:20 1008 29.77 837 24.72 5 41 37 -8.6 16.5
16:25 1008 29.77 837 24.72 4.2 39.6 38 -8.7 16.3
16:30 1008 29.77 837 24.72 4.3 39.7 37 -9.1 15.6
16:35 1008 29.77 837 24.72 4.2 39.6 39 -8.7 16.4
16:40 1008 29.77 837 24.72 4.2 39.6 37 -9.3 15.2
16:45 1008 29.77 837 24.72 4.1 39.3 38 -9.1 15.6
16:50 1008 29.77 837 24.72 4.1 39.4 37 -9.3 15.2
16:55 1008 29.77 837 24.72 4.3 39.7 36 -9.3 15.2
17:00 1008 29.77 837 24.72 4.3 39.8 36 -9.5 14.9
17:05 1007 29.74 837 24.72 4.3 39.8 35 -9.7 14.6
17:10 1007 29.74 837 24.72 4.4 40 36 -9.3 15.2
17:15 1007 29.74 837 24.72 4.8 40.6 36 -9.2 15.5
17:20 1007 29.74 837 24.72 4.9 40.8 34 -9.5 14.8
17:25 1007 29.74 837 24.72 4.7 40.4 36 -9.3 15.2
17:30 1007 29.74 837 24.72 4.5 40 38 -8.7 16.4
17:35 1007 29.74 837 24.72 3.9 39 38 -9 15.7
17:40 1007 29.74 837 24.72 3.5 38.2 39 -9.2 15.4
17:45 1007 29.74 837 24.72 3.3 38 43 -8.2 17.2
17:50 1007 29.74 837 24.72 2.4 36.4 46 -8 17.6
17:55 1007 29.74 837 24.72 2 35.6 47 -8.2 17.2
18:00 1007 29.74 837 24.72 1.8 35.2 49 -7.9 17.8
18:05 1007 29.74 837 24.72 1.6 34.8 49 -8.1 17.4
18:10 1007 29.74 836 24.69 1.5 34.6 50 -7.9 17.7
18:15 1007 29.74 836 24.69 1.1 33.9 51 -8 17.6
18:20 1007 29.74 836 24.69 0.8 33.5 50 -8.4 17
18:25 1007 29.74 836 24.69 0.8 33.5 50 -8.3 17
18:30 1007 29.74 836 24.69 0.9 33.6 50 -8.5 16.7
18:35 1007 29.74 836 24.69 1 33.8 50 -8.3 17
18:40 1007 29.74 836 24.69 0.5 32.9 51 -8.5 16.8
18:45 1007 29.74 836 24.69 0 32 57 -7.6 18.4
18:50 1007 29.74 836 24.69 -0.6 30.9 55 -8.6 16.5
18:55 1007 29.74 836 24.69 -0.3 31.4 53 -8.9 16
19:00 1007 29.74 836 24.69 -0.1 31.8 53 -8.6 16.5
19:05 1007 29.74 836 24.69 -0.2 31.7 54 -8.4 16.9
19:10 1007 29.74 836 24.69 -0.3 31.5 55 -8.3 17
19:15 1007 29.74 836 24.69 -0.1 31.9 55 -8.1 17.4
19:20 1007 29.74 836 24.69 -0.2 31.6 54 -8.3 17
19:25 1007 29.74 836 24.69 -0.2 31.6 55 -8.3 17.1
19:30 1007 29.74 836 24.69 0.2 32.3 50 -9 15.8
19:35 1007 29.74 836 24.69 0.5 32.9 50 -8.7 16.3
19:40 1007 29.74 836 24.69 0.8 33.4 48 -9 15.7
19:45 1007 29.74 836 24.69 0.9 33.6 49 -8.7 16.4
19:50 1007 29.74 836 24.69 0.6 33 50 -8.6 16.5
19:55 1007 29.74 836 24.69 0.3 32.5 51 -8.6 16.5
20:00 1007 29.74 836 24.69 0.2 32.4 51 -8.8 16.2
20:05 1007 29.74 836 24.69 0.2 32.4 51 -8.8 16.1
20:10 1007 29.74 836 24.69 0.3 32.5 51 -8.8 16.2
20:15 1007 29.74 836 24.69 0.2 32.4 51 -8.7 16.4
20:20 1007 29.74 836 24.69 0 32 53 -8.6 16.6
20:25 1007 29.74 836 24.69 0 32 51 -8.9 15.9
20:30 1006 29.71 836 24.69 0 32 52 -8.8 16.2
20:35 1006 29.71 836 24.69 0.1 32.1 52 -8.7 16.3
20:40 1006 29.71 836 24.69 -0 32 52 -8.8 16.1
20:45 1006 29.71 836 24.69 -0 31.9 50 -9.2 15.5
20:50 1006 29.71 836 24.69 0.1 32.1 50 -9.1 15.7
20:55 1006 29.71 836 24.69 0 32 51 -9 15.7
21:00 1006 29.71 836 24.69 0.1 32.2 51 -8.8 16.1
21:05 1006 29.71 836 24.69 0.1 32.2 51 -9 15.8
21:10 1006 29.71 836 24.69 0.2 32.4 50 -9 15.9
21:15 1006 29.71 836 24.69 0.2 32.3 49 -9.4 15.2
21:20 1006 29.71 835 24.66 0.3 32.5 49 -9.2 15.4
21:25 1006 29.71 835 24.66 0.2 32.4 49 -9.3 15.3
21:30 1006 29.71 835 24.66 0.3 32.5 48 -9.4 15
21:35 1006 29.71 835 24.66 0.3 32.5 50 -9 15.8
21:40 1006 29.71 835 24.66 0.3 32.6 48 -9.3 15.2
21:45 1006 29.71 835 24.66 0.4 32.8 48 -9.4 15.1
21:50 1006 29.71 835 24.66 0.4 32.8 48 -9.3 15.2
21:55 1006 29.71 835 24.66 0.4 32.8 48 -9.4 15.1
22:00 1006 29.71 835 24.66 0.3 32.6 49 -9.3 15.3
22:05 1006 29.71 835 24.66 0.2 32.4 48 -9.5 15
22:10 1006 29.71 835 24.66 0.2 32.4 49 -9.3 15.2
22:15 1006 29.71 835 24.66 0.2 32.4 48 -9.5 14.8
22:20 1006 29.71 835 24.66 0.2 32.3 49 -9.3 15.3
22:25 1006 29.71 835 24.66 -0 32 50 -9.3 15.3
22:30 1006 29.71 835 24.66 0.1 32.1 47 -9.9 14.3
22:35 1006 29.71 835 24.66 0.4 32.7 46 -10 14
22:40 1006 29.71 835 24.66 0.7 33.2 45 -10 14
22:45 1006 29.71 835 24.66 0.8 33.4 44 -10.1 13.9
22:50 1006 29.71 835 24.66 0.8 33.5 44 -10.1 13.8
22:55 1006 29.71 835 24.66 0.8 33.5 45 -9.9 14.3
23:00 1006 29.71 835 24.66 0.6 33.1 49 -9 15.7
23:05 1005 29.68 835 24.66 0.1 32.2 51 -8.9 15.9
23:10 1005 29.68 835 24.66 -0.1 31.9 50 -9.2 15.5
23:15 1005 29.68 835 24.66 -0 32 50 -9.1 15.5
23:20 1005 29.68 835 24.66 -0.1 31.9 53 -8.6 16.5
23:25 1005 29.68 834 24.63 -0.2 31.6 53 -8.7 16.4
23:30 1005 29.68 834 24.63 -0.3 31.4 52 -8.9 15.9
23:35 1005 29.68 834 24.63 -0.4 31.2 53 -8.9 16
23:40 1005 29.68 834 24.63 -0.3 31.5 50 -9.4 15.1
23:45 1005 29.68 834 24.63 -0.2 31.6 53 -8.8 16.2
23:50 1005 29.68 834 24.63 -0.3 31.5 53 -8.7 16.3
23:55 1005 29.68 834 24.63 -0.3 31.5 52 -8.9 16
24:00 1005 29.68 834 24.63 -0.1 31.8 50 -9.3 15.3